sensor_id;sensor_type;location;lat;lon;timestamp;pressure;altitude;pressure_sealevel;temperature;humidity
54556;BME280;57291;37.520;15.106;2024-01-16T00:01:17;100445.78;;;12.34;89.83
54556;BME280;57291;37.520;15.106;2024-01-16T00:03:45;100450.91;;;12.36;89.05
54556;BME280;57291;37.520;15.106;2024-01-16T00:06:12;100467.44;;;12.39;88.54
54556;BME280;57291;37.520;15.106;2024-01-16T00:08:40;100463.59;;;12.40;88.30
54556;BME280;57291;37.520;15.106;2024-01-16T00:11:07;100469.69;;;12.37;88.42
54556;BME280;57291;37.520;15.106;2024-01-16T00:13:35;100467.75;;;12.38;88.06
54556;BME280;57291;37.520;15.106;2024-01-16T00:16:02;100465.31;;;12.36;87.88
54556;BME280;57291;37.520;15.106;2024-01-16T00:18:33;100466.75;;;12.34;88.18
54556;BME280;57291;37.520;15.106;2024-01-16T00:21:01;100460.50;;;12.33;88.01
54556;BME280;57291;37.520;15.106;2024-01-16T00:23:31;100458.91;;;12.32;87.78
54556;BME280;57291;37.520;15.106;2024-01-16T00:25:59;100461.44;;;12.29;87.81
54556;BME280;57291;37.520;15.106;2024-01-16T00:28:27;100465.13;;;12.24;88.16
54556;BME280;57291;37.520;15.106;2024-01-16T00:30:54;100468.31;;;12.26;87.71
54556;BME280;57291;37.520;15.106;2024-01-16T00:33:22;100471.38;;;12.25;87.78
54556;BME280;57291;37.520;15.106;2024-01-16T00:35:49;100485.13;;;12.19;87.76
54556;BME280;57291;37.520;15.106;2024-01-16T00:38:17;100483.81;;;12.17;88.12
54556;BME280;57291;37.520;15.106;2024-01-16T00:40:44;100487.38;;;12.17;88.40
54556;BME280;57291;37.520;15.106;2024-01-16T00:43:13;100486.06;;;12.15;88.37
54556;BME280;57291;37.520;15.106;2024-01-16T00:45:40;100493.22;;;12.11;88.34
54556;BME280;57291;37.520;15.106;2024-01-16T00:48:07;100501.22;;;12.07;88.21
54556;BME280;57291;37.520;15.106;2024-01-16T00:50:37;100495.47;;;12.09;87.92
54556;BME280;57291;37.520;15.106;2024-01-16T00:53:05;100501.03;;;12.04;87.11
54556;BME280;57291;37.520;15.106;2024-01-16T00:55:32;100504.56;;;12.04;86.80
54556;BME280;57291;37.520;15.106;2024-01-16T00:58:00;100506.38;;;12.09;86.26
54556;BME280;57291;37.520;15.106;2024-01-16T01:00:28;100507.16;;;12.09;85.84
54556;BME280;57291;37.520;15.106;2024-01-16T01:02:58;100512.28;;;12.11;85.02
54556;BME280;57291;37.520;15.106;2024-01-16T01:05:28;100521.78;;;12.13;84.65
54556;BME280;57291;37.520;15.106;2024-01-16T01:07:56;100524.81;;;12.12;84.21
54556;BME280;57291;37.520;15.106;2024-01-16T01:10:24;100535.22;;;12.10;84.08
54556;BME280;57291;37.520;15.106;2024-01-16T01:12:51;100526.25;;;12.09;84.01
54556;BME280;57291;37.520;15.106;2024-01-16T01:15:20;100537.03;;;12.14;83.91
54556;BME280;57291;37.520;15.106;2024-01-16T01:17:49;100534.50;;;12.27;82.82
54556;BME280;57291;37.520;15.106;2024-01-16T01:20:17;100528.34;;;12.43;81.56
54556;BME280;57291;37.520;15.106;2024-01-16T01:22:46;100527.84;;;12.64;79.60
54556;BME280;57291;37.520;15.106;2024-01-16T01:25:13;100523.53;;;12.72;78.77
54556;BME280;57291;37.520;15.106;2024-01-16T01:27:41;100530.13;;;12.79;78.08
54556;BME280;57291;37.520;15.106;2024-01-16T01:30:09;100523.59;;;12.89;76.96
54556;BME280;57291;37.520;15.106;2024-01-16T01:32:38;100528.59;;;12.96;76.31
54556;BME280;57291;37.520;15.106;2024-01-16T01:35:06;100535.53;;;13.02;76.05
54556;BME280;57291;37.520;15.106;2024-01-16T01:37:35;100540.34;;;13.05;76.18
54556;BME280;57291;37.520;15.106;2024-01-16T01:40:03;100541.94;;;13.06;75.54
54556;BME280;57291;37.520;15.106;2024-01-16T01:42:30;100553.34;;;13.08;75.19
54556;BME280;57291;37.520;15.106;2024-01-16T01:44:58;100535.53;;;13.02;75.42
54556;BME280;57291;37.520;15.106;2024-01-16T01:47:25;100531.31;;;12.96;75.66
54556;BME280;57291;37.520;15.106;2024-01-16T01:49:53;100535.47;;;12.93;76.07
54556;BME280;57291;37.520;15.106;2024-01-16T01:52:20;100522.31;;;12.86;76.14
54556;BME280;57291;37.520;15.106;2024-01-16T01:54:48;100527.13;;;12.81;76.47
54556;BME280;57291;37.520;15.106;2024-01-16T01:57:16;100523.53;;;12.72;77.15
54556;BME280;57291;37.520;15.106;2024-01-16T01:59:43;100532.69;;;12.67;77.59
54556;BME280;57291;37.520;15.106;2024-01-16T02:02:11;100514.84;;;12.61;77.71
54556;BME280;57291;37.520;15.106;2024-01-16T02:04:40;100512.75;;;12.58;77.97
54556;BME280;57291;37.520;15.106;2024-01-16T02:07:10;100518.81;;;12.55;78.28
54556;BME280;57291;37.520;15.106;2024-01-16T02:09:38;100504.84;;;12.56;79.05
54556;BME280;57291;37.520;15.106;2024-01-16T02:12:06;100508.53;;;12.52;79.31
54556;BME280;57291;37.520;15.106;2024-01-16T02:14:34;100504.84;;;12.48;80.00
54556;BME280;57291;37.520;15.106;2024-01-16T02:17:02;100506.56;;;12.43;80.34
54556;BME280;57291;37.520;15.106;2024-01-16T02:19:29;100501.75;;;12.40;80.89
54556;BME280;57291;37.520;15.106;2024-01-16T02:21:59;100499.84;;;12.41;80.87
54556;BME280;57291;37.520;15.106;2024-01-16T02:24:28;100494.38;;;12.41;81.48
54556;BME280;57291;37.520;15.106;2024-01-16T02:26:56;100498.88;;;12.46;81.22
54556;BME280;57291;37.520;15.106;2024-01-16T02:29:23;100483.03;;;12.48;81.32
54556;BME280;57291;37.520;15.106;2024-01-16T02:31:51;100488.31;;;12.53;81.18
54556;BME280;57291;37.520;15.106;2024-01-16T02:34:19;100483.81;;;12.48;81.38
54556;BME280;57291;37.520;15.106;2024-01-16T02:36:46;100484.97;;;12.47;81.65
54556;BME280;57291;37.520;15.106;2024-01-16T02:39:13;100499.50;;;12.42;81.79
54556;BME280;57291;37.520;15.106;2024-01-16T02:41:41;100514.25;;;12.41;81.96
54556;BME280;57291;37.520;15.106;2024-01-16T02:44:09;100525.63;;;12.43;82.04
54556;BME280;57291;37.520;15.106;2024-01-16T02:46:36;100515.84;;;12.42;82.15
54556;BME280;57291;37.520;15.106;2024-01-16T02:49:06;100511.81;;;12.40;82.21
54556;BME280;57291;37.520;15.106;2024-01-16T02:51:34;100514.09;;;12.38;82.44
54556;BME280;57291;37.520;15.106;2024-01-16T02:54:01;100522.56;;;12.36;83.00
54556;BME280;57291;37.520;15.106;2024-01-16T02:56:29;100505.72;;;12.34;82.92
54556;BME280;57291;37.520;15.106;2024-01-16T02:58:56;100498.97;;;12.32;83.11
54556;BME280;57291;37.520;15.106;2024-01-16T03:01:23;100503.63;;;12.31;83.26
54556;BME280;57291;37.520;15.106;2024-01-16T03:03:51;100498.19;;;12.31;83.22
54556;BME280;57291;37.520;15.106;2024-01-16T03:06:24;100505.56;;;12.31;83.35
54556;BME280;57291;37.520;15.106;2024-01-16T03:08:52;100503.75;;;12.26;83.43
54556;BME280;57291;37.520;15.106;2024-01-16T03:11:19;100511.28;;;12.29;83.52
54556;BME280;57291;37.520;15.106;2024-01-16T03:13:47;100517.06;;;12.28;83.35
54556;BME280;57291;37.520;15.106;2024-01-16T03:16:16;100513.22;;;12.29;83.35
54556;BME280;57291;37.520;15.106;2024-01-16T03:18:43;100518.66;;;12.29;83.56
54556;BME280;57291;37.520;15.106;2024-01-16T03:21:13;100525.53;;;12.26;83.74
54556;BME280;57291;37.520;15.106;2024-01-16T03:23:40;100520.09;;;12.26;83.91
54556;BME280;57291;37.520;15.106;2024-01-16T03:26:14;100533.72;;;12.26;83.67
54556;BME280;57291;37.520;15.106;2024-01-16T03:28:42;100542.88;;;12.30;84.21
54556;BME280;57291;37.520;15.106;2024-01-16T03:31:12;100537.75;;;12.29;83.97
54556;BME280;57291;37.520;15.106;2024-01-16T03:33:40;100537.94;;;12.32;84.14
54556;BME280;57291;37.520;15.106;2024-01-16T03:36:10;100534.69;;;12.30;84.12
54556;BME280;57291;37.520;15.106;2024-01-16T03:38:42;100541.28;;;12.29;84.22
54556;BME280;57291;37.520;15.106;2024-01-16T03:41:13;100540.75;;;12.27;84.44
54556;BME280;57291;37.520;15.106;2024-01-16T03:43:40;100536.44;;;12.26;84.46
54556;BME280;57291;37.520;15.106;2024-01-16T03:46:10;100533.25;;;12.24;84.64
54556;BME280;57291;37.520;15.106;2024-01-16T03:48:38;100530.38;;;12.29;85.23
54556;BME280;57291;37.520;15.106;2024-01-16T03:51:06;100523.69;;;12.35;85.33
54556;BME280;57291;37.520;15.106;2024-01-16T03:53:33;100521.31;;;12.42;85.32
54556;BME280;57291;37.520;15.106;2024-01-16T03:56:01;100517.84;;;12.51;84.99
54556;BME280;57291;37.520;15.106;2024-01-16T03:58:28;100515.94;;;12.60;84.53
54556;BME280;57291;37.520;15.106;2024-01-16T04:00:56;100521.94;;;12.71;83.95
54556;BME280;57291;37.520;15.106;2024-01-16T04:03:23;100534.97;;;12.82;83.36
54556;BME280;57291;37.520;15.106;2024-01-16T04:05:51;100534.34;;;12.85;82.89
54556;BME280;57291;37.520;15.106;2024-01-16T04:08:18;100533.03;;;12.83;82.81
54556;BME280;57291;37.520;15.106;2024-01-16T04:10:45;100529.50;;;12.82;82.71
54556;BME280;57291;37.520;15.106;2024-01-16T04:13:13;100544.94;;;12.87;82.63
54556;BME280;57291;37.520;15.106;2024-01-16T04:15:40;100543.94;;;12.83;82.66
54556;BME280;57291;37.520;15.106;2024-01-16T04:18:07;100536.91;;;12.82;82.76
54556;BME280;57291;37.520;15.106;2024-01-16T04:20:35;100533.19;;;12.78;82.70
54556;BME280;57291;37.520;15.106;2024-01-16T04:23:03;100533.94;;;12.70;83.22
54556;BME280;57291;37.520;15.106;2024-01-16T04:25:30;100517.75;;;12.64;83.20
54556;BME280;57291;37.520;15.106;2024-01-16T04:27:58;100513.59;;;12.67;82.68
54556;BME280;57291;37.520;15.106;2024-01-16T04:30:29;100516.31;;;12.67;82.11
54556;BME280;57291;37.520;15.106;2024-01-16T04:32:56;100512.75;;;12.66;81.64
54556;BME280;57291;37.520;15.106;2024-01-16T04:35:24;100526.72;;;12.65;81.33
54556;BME280;57291;37.520;15.106;2024-01-16T04:37:51;100520.13;;;12.66;81.11
54556;BME280;57291;37.520;15.106;2024-01-16T04:40:19;100516.31;;;12.67;80.47
54556;BME280;57291;37.520;15.106;2024-01-16T04:42:46;100520.50;;;12.73;80.55
54556;BME280;57291;37.520;15.106;2024-01-16T04:45:13;100519.22;;;12.79;79.59
54556;BME280;57291;37.520;15.106;2024-01-16T04:47:41;100523.25;;;12.82;79.01
54556;BME280;57291;37.520;15.106;2024-01-16T04:50:09;100521.16;;;12.79;78.64
54556;BME280;57291;37.520;15.106;2024-01-16T04:52:37;100517.19;;;12.85;78.52
54556;BME280;57291;37.520;15.106;2024-01-16T04:55:05;100525.22;;;12.90;78.10
54556;BME280;57291;37.520;15.106;2024-01-16T04:57:33;100536.78;;;12.96;77.40
54556;BME280;57291;37.520;15.106;2024-01-16T05:00:01;100546.75;;;13.00;77.31
54556;BME280;57291;37.520;15.106;2024-01-16T05:02:28;100547.88;;;12.99;77.05
54556;BME280;57291;37.520;15.106;2024-01-16T05:04:55;100564.72;;;13.01;76.88
54556;BME280;57291;37.520;15.106;2024-01-16T05:07:23;100588.13;;;12.94;77.32
54556;BME280;57291;37.520;15.106;2024-01-16T05:09:50;100588.88;;;12.85;77.52
54556;BME280;57291;37.520;15.106;2024-01-16T05:12:18;100589.97;;;12.76;78.40
54556;BME280;57291;37.520;15.106;2024-01-16T05:14:45;100593.50;;;12.76;78.61
54556;BME280;57291;37.520;15.106;2024-01-16T05:17:13;100588.88;;;12.77;78.26
54556;BME280;57291;37.520;15.106;2024-01-16T05:19:40;100590.75;;;12.76;78.29
54556;BME280;57291;37.520;15.106;2024-01-16T05:22:10;100600.59;;;12.86;78.12
54556;BME280;57291;37.520;15.106;2024-01-16T05:24:37;100597.25;;;12.89;78.04
54556;BME280;57291;37.520;15.106;2024-01-16T05:27:05;100597.25;;;12.89;77.73
54556;BME280;57291;37.520;15.106;2024-01-16T05:29:32;100593.78;;;12.97;77.41
54556;BME280;57291;37.520;15.106;2024-01-16T05:31:59;100584.63;;;13.02;76.77
54556;BME280;57291;37.520;15.106;2024-01-16T05:34:27;100608.63;;;13.22;76.09
54556;BME280;57291;37.520;15.106;2024-01-16T05:36:56;100597.28;;;13.29;75.48
54556;BME280;57291;37.520;15.106;2024-01-16T05:39:24;100596.00;;;13.26;75.63
54556;BME280;57291;37.520;15.106;2024-01-16T05:41:52;100596.91;;;13.22;75.84
54556;BME280;57291;37.520;15.106;2024-01-16T05:44:19;100604.41;;;13.16;76.06
54556;BME280;57291;37.520;15.106;2024-01-16T05:46:47;100609.06;;;13.07;76.54
54556;BME280;57291;37.520;15.106;2024-01-16T05:49:14;100614.63;;;13.02;76.60
54556;BME280;57291;37.520;15.106;2024-01-16T05:51:42;100605.94;;;12.91;76.91
54556;BME280;57291;37.520;15.106;2024-01-16T05:54:09;100610.53;;;12.82;77.23
54556;BME280;57291;37.520;15.106;2024-01-16T05:56:36;100623.63;;;12.71;77.81
54556;BME280;57291;37.520;15.106;2024-01-16T05:59:04;100631.94;;;12.66;78.08
54556;BME280;57291;37.520;15.106;2024-01-16T06:01:32;100638.75;;;12.55;78.89
54556;BME280;57291;37.520;15.106;2024-01-16T06:03:59;100646.44;;;12.53;79.33
54556;BME280;57291;37.520;15.106;2024-01-16T06:06:27;100640.25;;;12.38;79.49
54556;BME280;57291;37.520;15.106;2024-01-16T06:08:54;100654.69;;;12.39;80.16
54556;BME280;57291;37.520;15.106;2024-01-16T06:11:32;100656.91;;;12.37;80.41
54556;BME280;57291;37.520;15.106;2024-01-16T06:14:00;100663.66;;;12.39;80.80
54556;BME280;57291;37.520;15.106;2024-01-16T06:16:27;100668.31;;;12.39;81.04
54556;BME280;57291;37.520;15.106;2024-01-16T06:18:55;100670.31;;;12.47;81.01
54556;BME280;57291;37.520;15.106;2024-01-16T06:21:22;100667.06;;;12.45;80.78
54556;BME280;57291;37.520;15.106;2024-01-16T06:23:50;100674.50;;;12.53;80.74
54556;BME280;57291;37.520;15.106;2024-01-16T06:26:18;100684.78;;;12.56;81.07
54556;BME280;57291;37.520;15.106;2024-01-16T06:28:45;100685.09;;;12.55;80.84
54556;BME280;57291;37.520;15.106;2024-01-16T06:31:13;100687.22;;;12.58;80.93
54556;BME280;57291;37.520;15.106;2024-01-16T06:33:40;100693.75;;;12.57;81.19
54556;BME280;57291;37.520;15.106;2024-01-16T06:36:08;100699.91;;;12.62;81.33
54556;BME280;57291;37.520;15.106;2024-01-16T06:38:38;100710.38;;;12.69;81.46
54556;BME280;57291;37.520;15.106;2024-01-16T06:41:06;100705.91;;;12.73;81.32
54556;BME280;57291;37.520;15.106;2024-01-16T06:43:34;100711.78;;;12.80;81.23
54556;BME280;57291;37.520;15.106;2024-01-16T06:46:01;100712.75;;;12.84;80.94
54556;BME280;57291;37.520;15.106;2024-01-16T06:48:28;100710.72;;;12.90;80.76
54556;BME280;57291;37.520;15.106;2024-01-16T06:50:56;100706.41;;;12.98;80.72
54556;BME280;57291;37.520;15.106;2024-01-16T06:53:23;100710.84;;;13.16;79.66
54556;BME280;57291;37.520;15.106;2024-01-16T06:55:51;100707.28;;;13.38;78.63
54556;BME280;57291;37.520;15.106;2024-01-16T06:58:18;100704.47;;;13.52;77.96
54556;BME280;57291;37.520;15.106;2024-01-16T07:00:46;100705.66;;;13.68;77.45
54556;BME280;57291;37.520;15.106;2024-01-16T07:03:14;100706.66;;;13.72;76.47
54556;BME280;57291;37.520;15.106;2024-01-16T07:05:41;100701.94;;;13.64;76.69
54556;BME280;57291;37.520;15.106;2024-01-16T07:08:10;100714.47;;;13.65;76.59
54556;BME280;57291;37.520;15.106;2024-01-16T07:10:37;100713.31;;;13.57;76.90
54556;BME280;57291;37.520;15.106;2024-01-16T07:13:05;100711.22;;;13.54;77.11
54556;BME280;57291;37.520;15.106;2024-01-16T07:15:34;100716.38;;;13.56;77.37
54556;BME280;57291;37.520;15.106;2024-01-16T07:18:01;100718.16;;;13.60;77.30
54556;BME280;57291;37.520;15.106;2024-01-16T07:20:29;100720.13;;;13.77;76.79
54556;BME280;57291;37.520;15.106;2024-01-16T07:22:56;100725.34;;;13.96;76.57
54556;BME280;57291;37.520;15.106;2024-01-16T07:25:25;100739.38;;;14.12;76.00
54556;BME280;57291;37.520;15.106;2024-01-16T07:27:52;100741.31;;;14.29;74.87
54556;BME280;57291;37.520;15.106;2024-01-16T07:30:20;100750.97;;;14.44;74.28
54556;BME280;57291;37.520;15.106;2024-01-16T07:32:47;100755.06;;;14.55;73.32
54556;BME280;57291;37.520;15.106;2024-01-16T07:35:15;100767.13;;;14.71;72.58
54556;BME280;57291;37.520;15.106;2024-01-16T07:37:43;100766.78;;;14.82;72.27
54556;BME280;57291;37.520;15.106;2024-01-16T07:40:10;100767.28;;;15.01;72.38
54556;BME280;57291;37.520;15.106;2024-01-16T07:42:39;100781.81;;;15.40;71.53
54556;BME280;57291;37.520;15.106;2024-01-16T07:45:07;100779.41;;;15.47;70.53
54556;BME280;57291;37.520;15.106;2024-01-16T07:47:34;100788.28;;;15.44;70.33
54556;BME280;57291;37.520;15.106;2024-01-16T07:50:03;100784.56;;;15.40;70.94
54556;BME280;57291;37.520;15.106;2024-01-16T07:52:34;100804.56;;;15.40;70.53
54556;BME280;57291;37.520;15.106;2024-01-16T07:55:02;100815.03;;;15.47;70.24
54556;BME280;57291;37.520;15.106;2024-01-16T07:57:30;100807.91;;;15.46;70.47
54556;BME280;57291;37.520;15.106;2024-01-16T07:59:57;100814.53;;;15.36;71.38
54556;BME280;57291;37.520;15.106;2024-01-16T08:02:32;100807.81;;;15.34;71.77
54556;BME280;57291;37.520;15.106;2024-01-16T08:05:01;100811.47;;;15.46;71.92
54556;BME280;57291;37.520;15.106;2024-01-16T08:07:28;100813.53;;;15.58;71.83
54556;BME280;57291;37.520;15.106;2024-01-16T08:09:56;100822.72;;;15.71;71.68
54556;BME280;57291;37.520;15.106;2024-01-16T08:12:23;100817.81;;;15.85;71.56
54556;BME280;57291;37.520;15.106;2024-01-16T08:14:50;100813.25;;;15.98;71.62
54556;BME280;57291;37.520;15.106;2024-01-16T08:17:19;100815.09;;;16.15;71.30
54556;BME280;57291;37.520;15.106;2024-01-16T08:19:46;100812.81;;;16.26;71.03
54556;BME280;57291;37.520;15.106;2024-01-16T08:22:14;100791.16;;;16.33;70.83
54556;BME280;57291;37.520;15.106;2024-01-16T08:24:41;100804.13;;;16.45;70.76
54556;BME280;57291;37.520;15.106;2024-01-16T08:27:08;100801.50;;;16.48;70.63
54556;BME280;57291;37.520;15.106;2024-01-16T08:29:36;100798.78;;;16.48;70.85
54556;BME280;57291;37.520;15.106;2024-01-16T08:32:03;100804.75;;;16.50;71.24
54556;BME280;57291;37.520;15.106;2024-01-16T08:34:31;100812.78;;;16.55;71.90
54556;BME280;57291;37.520;15.106;2024-01-16T08:36:58;100815.31;;;16.60;71.91
54556;BME280;57291;37.520;15.106;2024-01-16T08:39:25;100812.53;;;16.69;72.19
54556;BME280;57291;37.520;15.106;2024-01-16T08:41:55;100818.78;;;16.78;72.01
54556;BME280;57291;37.520;15.106;2024-01-16T08:44:24;100830.03;;;16.85;71.31
54556;BME280;57291;37.520;15.106;2024-01-16T08:46:52;100840.78;;;16.91;71.09
54556;BME280;57291;37.520;15.106;2024-01-16T08:49:19;100835.78;;;16.93;70.49
54556;BME280;57291;37.520;15.106;2024-01-16T08:51:47;100844.41;;;17.03;71.33
54556;BME280;57291;37.520;15.106;2024-01-16T08:54:14;100829.88;;;17.03;71.16
54556;BME280;57291;37.520;15.106;2024-01-16T08:56:43;100831.75;;;17.11;70.95
54556;BME280;57291;37.520;15.106;2024-01-16T08:59:10;100825.44;;;17.10;70.44
54556;BME280;57291;37.520;15.106;2024-01-16T09:01:38;100824.22;;;17.20;70.52
54556;BME280;57291;37.520;15.106;2024-01-16T09:04:06;100827.38;;;17.31;70.19
54556;BME280;57291;37.520;15.106;2024-01-16T09:06:33;100828.75;;;17.37;70.08
54556;BME280;57291;37.520;15.106;2024-01-16T09:09:01;100832.63;;;17.36;70.42
54556;BME280;57291;37.520;15.106;2024-01-16T09:11:32;100825.63;;;17.26;71.15
54556;BME280;57291;37.520;15.106;2024-01-16T09:13:59;100827.50;;;17.14;71.55
54556;BME280;57291;37.520;15.106;2024-01-16T09:16:30;100831.47;;;17.04;71.90
54556;BME280;57291;37.520;15.106;2024-01-16T09:18:57;100826.75;;;16.92;72.76
54556;BME280;57291;37.520;15.106;2024-01-16T09:21:25;100836.63;;;16.84;73.75
54556;BME280;57291;37.520;15.106;2024-01-16T09:23:52;100841.19;;;16.80;74.05
54556;BME280;57291;37.520;15.106;2024-01-16T09:26:20;100838.44;;;16.80;74.75
54556;BME280;57291;37.520;15.106;2024-01-16T09:28:47;100839.13;;;16.98;74.34
54556;BME280;57291;37.520;15.106;2024-01-16T09:31:15;100843.03;;;17.30;73.63
54556;BME280;57291;37.520;15.106;2024-01-16T09:33:43;100845.63;;;17.60;73.05
54556;BME280;57291;37.520;15.106;2024-01-16T09:36:11;100846.75;;;17.80;73.16
54556;BME280;57291;37.520;15.106;2024-01-16T09:38:38;100841.50;;;18.12;71.80
54556;BME280;57291;37.520;15.106;2024-01-16T09:41:05;100841.63;;;18.40;71.11
54556;BME280;57291;37.520;15.106;2024-01-16T09:43:33;100838.50;;;18.66;70.58
54556;BME280;57291;37.520;15.106;2024-01-16T09:46:01;100836.44;;;18.75;69.24
54556;BME280;57291;37.520;15.106;2024-01-16T09:48:30;100838.16;;;18.80;69.04
54556;BME280;57291;37.520;15.106;2024-01-16T09:50:59;100839.75;;;18.81;69.18
54556;BME280;57291;37.520;15.106;2024-01-16T09:53:26;100837.88;;;18.97;69.35
54556;BME280;57291;37.520;15.106;2024-01-16T09:55:54;100831.38;;;19.17;68.50
54556;BME280;57291;37.520;15.106;2024-01-16T09:58:25;100826.41;;;19.23;68.07
54556;BME280;57291;37.520;15.106;2024-01-16T10:00:56;100822.06;;;19.22;68.19
54556;BME280;57291;37.520;15.106;2024-01-16T10:03:24;100821.38;;;19.25;67.76
54556;BME280;57291;37.520;15.106;2024-01-16T10:05:51;100814.19;;;19.36;67.58
54556;BME280;57291;37.520;15.106;2024-01-16T10:08:19;100800.13;;;19.26;67.74
54556;BME280;57291;37.520;15.106;2024-01-16T10:10:48;100810.16;;;19.34;68.37
54556;BME280;57291;37.520;15.106;2024-01-16T10:13:19;100812.50;;;19.32;68.71
54556;BME280;57291;37.520;15.106;2024-01-16T10:15:52;100816.41;;;19.47;68.24
54556;BME280;57291;37.520;15.106;2024-01-16T10:18:28;100808.25;;;19.50;66.64
54556;BME280;57291;37.520;15.106;2024-01-16T10:21:00;100815.66;;;19.62;66.06
54556;BME280;57291;37.520;15.106;2024-01-16T10:23:29;100796.81;;;19.64;66.66
54556;BME280;57291;37.520;15.106;2024-01-16T10:26:14;100808.84;;;19.72;65.69
54556;BME280;57291;37.520;15.106;2024-01-16T10:28:43;100806.25;;;19.79;65.21
54556;BME280;57291;37.520;15.106;2024-01-16T10:31:11;100807.41;;;19.94;65.18
54556;BME280;57291;37.520;15.106;2024-01-16T10:33:41;100800.44;;;20.00;65.17
54556;BME280;57291;37.520;15.106;2024-01-16T10:36:14;100817.06;;;20.19;64.48
54556;BME280;57291;37.520;15.106;2024-01-16T10:38:44;100822.34;;;20.24;63.62
54556;BME280;57291;37.520;15.106;2024-01-16T10:41:14;100820.69;;;20.39;63.41
54556;BME280;57291;37.520;15.106;2024-01-16T10:43:41;100817.66;;;20.60;63.34
54556;BME280;57291;37.520;15.106;2024-01-16T10:46:16;100823.09;;;20.76;62.79
54556;BME280;57291;37.520;15.106;2024-01-16T10:48:58;100816.66;;;20.88;62.66
54556;BME280;57291;37.520;15.106;2024-01-16T10:51:27;100812.66;;;20.85;61.67
54556;BME280;57291;37.520;15.106;2024-01-16T10:54:00;100814.09;;;20.79;62.10
54556;BME280;57291;37.520;15.106;2024-01-16T10:56:31;100812.66;;;20.85;61.28
54556;BME280;57291;37.520;15.106;2024-01-16T10:59:08;100801.25;;;20.87;61.87
54556;BME280;57291;37.520;15.106;2024-01-16T11:01:43;100804.38;;;20.85;61.33
54556;BME280;57291;37.520;15.106;2024-01-16T11:04:12;100797.78;;;20.90;60.99
54556;BME280;57291;37.520;15.106;2024-01-16T11:06:42;100796.75;;;20.98;61.44
54556;BME280;57291;37.520;15.106;2024-01-16T11:09:12;100792.16;;;20.86;60.01
54556;BME280;57291;37.520;15.106;2024-01-16T11:11:46;100801.59;;;20.85;60.42
54556;BME280;57291;37.520;15.106;2024-01-16T11:14:14;100794.84;;;21.02;60.85
54556;BME280;57291;37.520;15.106;2024-01-16T11:16:43;100784.50;;;21.18;60.81
54556;BME280;57291;37.520;15.106;2024-01-16T11:19:14;100793.38;;;21.27;60.77
54556;BME280;57291;37.520;15.106;2024-01-16T11:22:03;100785.03;;;20.85;57.21
54556;BME280;57291;37.520;15.106;2024-01-16T11:24:32;100786.50;;;20.44;60.11
54556;BME280;57291;37.520;15.106;2024-01-16T11:26:59;100780.34;;;20.50;60.26
54556;BME280;57291;37.520;15.106;2024-01-16T11:31:55;100776.97;;;20.76;61.13
54556;BME280;57291;37.520;15.106;2024-01-16T11:37:13;100762.94;;;20.85;60.33
54556;BME280;57291;37.520;15.106;2024-01-16T11:39:40;100751.88;;;20.85;60.72
54556;BME280;57291;37.520;15.106;2024-01-16T11:42:08;100757.53;;;20.92;59.95
54556;BME280;57291;37.520;15.106;2024-01-16T11:44:49;100757.84;;;20.87;60.30
54556;BME280;57291;37.520;15.106;2024-01-16T11:47:23;100758.56;;;21.03;60.84
54556;BME280;57291;37.520;15.106;2024-01-16T11:50:07;100754.63;;;21.04;60.69
54556;BME280;57291;37.520;15.106;2024-01-16T12:00:57;100725.44;;;21.26;59.94
54556;BME280;57291;37.520;15.106;2024-01-16T12:03:25;100731.97;;;21.38;59.93
54556;BME280;57291;37.520;15.106;2024-01-16T12:06:01;100734.16;;;21.28;58.61
54556;BME280;57291;37.520;15.106;2024-01-16T12:08:30;100739.25;;;21.26;59.04
54556;BME280;57291;37.520;15.106;2024-01-16T12:10:57;100720.25;;;21.25;59.22
54556;BME280;57291;37.520;15.106;2024-01-16T12:13:26;100731.75;;;21.46;58.65
54556;BME280;57291;37.520;15.106;2024-01-16T12:16:03;100731.63;;;21.39;59.52
54556;BME280;57291;37.520;15.106;2024-01-16T12:18:34;100734.59;;;20.88;60.73
54556;BME280;57291;37.520;15.106;2024-01-16T12:21:12;100740.91;;;20.69;60.74
54556;BME280;57291;37.520;15.106;2024-01-16T12:23:40;100720.91;;;20.02;64.07
54556;BME280;57291;37.520;15.106;2024-01-16T12:26:24;100720.75;;;19.47;58.58
54556;BME280;57291;37.520;15.106;2024-01-16T12:28:52;100733.56;;;19.39;62.95
54556;BME280;57291;37.520;15.106;2024-01-16T12:31:29;100740.31;;;19.26;63.31
54556;BME280;57291;37.520;15.106;2024-01-16T12:34:06;100738.88;;;19.32;61.33
54556;BME280;57291;37.520;15.106;2024-01-16T12:36:36;100728.50;;;19.41;63.82
54556;BME280;57291;37.520;15.106;2024-01-16T12:39:07;100734.50;;;19.31;60.86
54556;BME280;57291;37.520;15.106;2024-01-16T12:41:42;100738.53;;;19.34;60.21
54556;BME280;57291;37.520;15.106;2024-01-16T12:44:12;100735.53;;;19.55;60.71
54556;BME280;57291;37.520;15.106;2024-01-16T12:46:56;100721.44;;;19.12;62.01
54556;BME280;57291;37.520;15.106;2024-01-16T12:49:24;100742.69;;;19.12;61.60
54556;BME280;57291;37.520;15.106;2024-01-16T12:52:21;100738.06;;;19.48;61.73
54556;BME280;57291;37.520;15.106;2024-01-16T12:54:58;100732.03;;;19.89;60.32
54556;BME280;57291;37.520;15.106;2024-01-16T12:57:28;100738.56;;;19.81;60.25
54556;BME280;57291;37.520;15.106;2024-01-16T12:59:57;100731.78;;;19.95;60.46
54556;BME280;57291;37.520;15.106;2024-01-16T13:02:28;100740.47;;;20.12;58.45